Tokyo, Japan
Current Conditions -  °F | °C
As of 6:30 AM on Thursday 23 Oct 2014 (Local Time) from RJTT Reporting Station
Light Rain Light Rain  
Wind Chill: 57°   Ceiling: 6000
Heat Index: 57°   Visibility: 6mi
Dew Point: 54°   Wind: 18mph
Humidity: 88%   Direction: 10°N
Pressure: 30.03"   Gusts: NA
Location:  35.67°N, 139.77°E
Report Text: RJTT 222130Z 01016KT 9999 -RA FEW010 BKN060 14/12 Q1017 NOSIG RMK 1CU010 7SC060 A3004
Loading
Personal Weather Stations






























Interactive Weather Map New forecast layout! Learn more

10-Day Weather Forecast

Advertisements
Track Severe Weather on mobile